• Join FlightAware (Why Join?)
  • Login
  • US Flag 
08:02PM EDT


 

Airport Tracker/Info


-or-


 

Live Flight TrackerFlight Track Log ✈ N618JB ✈ 08-Apr-2013 ✈ KFLL - KEWR

Flight Track Log - Related Links

Times and Time Zones

All times are in EDT time to prevent confusion due to time zone crossing. See the N618JB flight status page for this flight to view local times or setup timezone preferences in your user account.

Time Position Orientation Groundspeed Altitude Reporting Facility
EDT Latitude Longitude Course Direction KTS MPH feet Rate Location/Type
10:18PM 26.0750 -80.1389 50° Northeast 154 177 900  Level Miami Center
10:20PM 26.0636 -80.0831 103° East 204 235 2,700 1,860 Climbing Miami Center
10:21PM 26.0208 -80.0289 131° Southeast 226 260 4,900 2,460 Climbing Miami Center
10:22PM 26.2213 -79.6979 56° Northeast  Level FlightAware Approximate
10:22PM 26.0456 -79.9556 69° East 209 241 7,900  Level Miami Center
10:23PM 26.2910 -79.5968 53° Northeast  Level FlightAware Approximate
10:23PM 26.0969 -79.8850 51° Northeast 214 246 10,400  Level Miami Center
10:24PM 26.3565 -79.4914 50° Northeast  Level FlightAware Approximate
10:24PM 26.1550 -79.8033 52° Northeast 278 320 11,500  Level Miami Center
10:25PM 26.2175 -79.7100 53° Northeast 332 382 13,700 2,400 Climbing Miami Center
10:26PM 26.2864 -79.6072 53° Northeast 366 421 16,300 2,040 Climbing Miami Center
10:27PM 26.3464 -79.5183 53° Northeast 392 451 17,800 1,680 Climbing Miami Center
10:28PM 26.4500 -79.4486 31° Northeast 392 451 19,700 1,800 Climbing Miami Center
10:29PM 26.5450 -79.3997 25° Northeast 397 457 21,400 1,560 Climbing Miami Center
10:30PM 26.6631 -79.3369 25° Northeast 417 480 22,900 1,320 Climbing Miami Center
10:31PM 26.7661 -79.2858 24° Northeast 423 487 24,100 1,200 Climbing Miami Center
10:32PM 26.8778 -79.2275 25° Northeast 437 503 25,400 1,260 Climbing Miami Center
10:33PM 26.9936 -79.1692 24° Northeast 443 510 26,700 1,320 Climbing Miami Center
10:34PM 27.1222 -79.0994 26° Northeast 448 516 28,100 1,140 Climbing Miami Center
10:35PM 27.2317 -79.0431 25° Northeast 461 531 29,100 1,080 Climbing Miami Center
10:36PM 27.3494 -78.9822 25° Northeast 469 540 30,300 1,260 Climbing Miami Center
10:37PM 27.4858 -78.9356 17° North 464 534 31,700 1,200 Climbing Miami Center
10:38PM 27.6136 -78.9167 North 459 528 32,800 1,200 Climbing Miami Center
10:39PM 27.7286 -78.9047 North 453 521 34,100 1,080 Climbing Miami Center
10:40PM 27.8500 -78.8881 North 448 516 35,000 420 Climbing Miami Center
10:41PM 27.9797 -78.8717 North 435 501 35,000  Level Miami Center
10:42PM 28.1031 -78.8550 North 435 501 35,000 -60 Level Miami Center
10:43PM 28.2286 -78.8361 North 442 509 34,900  Descending Miami Center
10:44PM 28.3478 -78.8192 North 442 509 35,000  Climbing Miami Center
10:45PM 28.4669 -78.8025 North 443 510 35,000  Level Miami Center
10:46PM 28.5925 -78.7856 North 443 510 35,000 -60 Level Miami Center
10:47PM 28.7158 -78.7689 North 443 510 34,900 -60 Descending Miami Center
10:48PM 28.8369 -78.7519 North 443 510 34,900  Level Miami Center
10:49PM 28.9583 -78.7328 North 443 510 35,000  Climbing Miami Center
10:50PM 29.0817 -78.7158 North 443 510 35,000  Level Miami Center
10:51PM 29.2069 -78.6964 North 448 516 35,000  Level Miami Center
10:52PM 29.3222 -78.6747 North 440 506 35,000  Level Miami Center
10:53PM 29.4536 -78.6600 North 446 513 35,000 -60 Level Miami Center
10:54PM 29.5811 -78.6456 North 451 519 34,900 -60 Descending Miami Center
10:55PM 29.7003 -78.6258 North 446 513 34,900  Level Miami Center
10:56PM 29.8436 -78.5994 North 446 513 35,000  Climbing Jacksonville Center
10:57PM 29.9661 -78.5797 North 459 528 35,000  Level Jacksonville Center
10:58PM 30.0886 -78.5597 North 452 520 35,000  Level Jacksonville Center
10:59PM 30.2175 -78.5469 North 447 514 35,000  Level Jacksonville Center
11:00PM 30.3381 -78.5317 North 435 501 35,000  Level Jacksonville Center
11:01PM 30.4628 -78.5164 North 445 512 35,000  Level Jacksonville Center
11:02PM 30.5892 -78.4936 North 445 512 35,000  Level Jacksonville Center
11:03PM 30.7119 -78.4761 North 439 505 35,000  Level Jacksonville Center
11:04PM 30.8322 -78.4533 North 444 511 35,000  Level Jacksonville Center
11:05PM 30.9525 -78.4308 North 444 511 35,000 -60 Level Jacksonville Center
11:06PM 31.0792 -78.4175 North 447 514 34,900  Descending Jacksonville Center
11:07PM 31.2036 -78.3922 10° North 447 514 35,000  Climbing Jacksonville Center
11:08PM 31.3242 -78.3767 North 438 504 35,000  Level Jacksonville Center
11:09PM 31.4483 -78.3511 10° North 443 510 35,000  Level Jacksonville Center
11:10PM 31.5711 -78.3331 North 443 510 35,000 -60 Level Jacksonville Center
11:11PM 31.6914 -78.3150 North 443 510 34,900  Descending Jacksonville Center
11:12PM 31.8158 -78.2917 North 449 517 35,000  Climbing Jacksonville Center
11:13PM 31.9403 -78.2708 North 442 509 35,000  Level Jacksonville Center
11:14PM 32.0628 -78.2522 North 442 509 35,000  Level Jacksonville Center
11:15PM 32.1725 -78.2319 North 442 509 35,000  Level Jacksonville Center
11:16PM 32.2969 -78.2086 North 442 509 35,000  Level Jacksonville Center
11:17PM 32.4214 -78.1872 North 442 509 35,000  Level Jacksonville Center
11:18PM 32.5442 -78.1761 North 442 509 35,000  Level Jacksonville Center
11:19PM 32.6686 -78.1522 North 442 509 35,000  Level Jacksonville Center
11:20PM 32.7886 -78.1261 10° North 442 509 35,000 -60 Level Jacksonville Center
11:21PM 32.9114 -78.1147 North 442 509 34,900 -60 Descending Jacksonville Center
11:22PM 33.0336 -78.0933 North 442 509 34,900  Level Jacksonville Center
11:24PM 33.2619 -78.0575 North 466 536 35,000  Climbing Washington Center
11:25PM 33.3814 -78.0361 North 447 514 35,000  Level Washington Center
11:26PM 33.5069 -78.0172 North 442 509 35,000  Level Washington Center
11:27PM 33.6283 -77.9958 North 442 509 35,000  Level Washington Center
11:28PM 33.7497 -77.9769 North 447 514 35,000  Level Washington Center
11:29PM 33.8731 -77.9556 North 447 514 35,000  Level Washington Center
11:30PM 33.9967 -77.9314 North 454 522 35,000  Level Washington Center
11:31PM 34.1097 -77.9144 North 454 522 35,000  Level Washington Center
11:32PM 34.2311 -77.8928 North 448 516 35,000  Level Washington Center
11:33PM 34.3567 -77.8761 North 443 510 35,000  Level Washington Center
11:34PM 34.4756 -77.8744 North 443 510 35,000  Level Washington Center
11:35PM 34.5967 -77.8728 North 438 504 35,000  Level Washington Center
11:36PM 34.7175 -77.8711 North 438 504 35,000  Level Washington Center
11:37PM 34.8344 -77.8669 North 432 497 35,000  Level Washington Center
11:38PM 34.9556 -77.8653 North 432 497 35,000  Level Washington Center
11:39PM 35.0767 -77.8636 North 432 497 35,000  Level Washington Center
11:40PM 35.1956 -77.8617 North 432 497 35,000  Level Washington Center
11:41PM 35.3167 -77.8600 North 426 490 35,000  Level Washington Center
11:42PM 35.4356 -77.8583 North 421 484 35,000  Level Washington Center
11:43PM 35.5547 -77.8567 North 421 484 35,000  Level Washington Center
11:44PM 35.6736 -77.8550 North 421 484 35,000  Level Washington Center
11:45PM 35.7947 -77.8531 North 421 484 35,000  Level Washington Center
11:46PM 35.9136 -77.8514 North 421 484 35,000  Level Washington Center
11:47PM 36.0347 -77.8497 North 421 484 35,000  Level Washington Center
11:48PM 36.1536 -77.8481 North 421 484 35,000  Level Washington Center
11:49PM 36.2706 -77.8461 North 421 484 35,000  Level Washington Center
11:50PM 36.3917 -77.8444 North 421 484 35,000  Level Washington Center
11:51PM 36.5064 -77.8453 360° North 416 479 35,000  Level Washington Center
11:52PM 36.6253 -77.8461 360° North 421 484 35,000  Level Washington Center
11:53PM 36.7442 -77.8419 North 421 484 35,000  Level Washington Center
11:54PM 36.8631 -77.8375 North 421 484 35,000  Level Washington Center
11:55PM 36.9853 -77.7786 21° North 427 491 35,000  Level Washington Center
11:56PM 37.0992 -77.7142 24° Northeast 443 510 35,000  Level Washington Center
11:57PM 37.2150 -77.6444 26° Northeast 449 517 35,000  Level Washington Center
11:58PM 37.3289 -77.5769 25° Northeast 454 522 35,000  Level Washington Center
11:59PM 37.4467 -77.5067 25° Northeast 454 522 35,000  Level Washington Center
12:00AM 37.5603 -77.4414 24° Northeast 449 517 35,000  Level Washington Center
12:01AM 37.6742 -77.3706 26° Northeast 444 511 35,000  Level Washington Center
12:02AM 37.7897 -77.3025 25° Northeast 444 511 35,000  Level Washington Center
12:03AM 37.8975 -77.2153 33° Northeast 450 518 35,000  Level Washington Center
12:04AM 38.0092 -77.1256 32° Northeast 458 527 35,000 -300 Level Washington Center
12:05AM 38.1167 -77.0381 33° Northeast 463 533 34,500 -780 Descending Washington Center
12:06AM 38.2261 -76.9503 32° Northeast 463 533 33,500 -780 Descending Washington Center
12:07AM 38.3375 -76.8597 33° Northeast 463 533 33,000 -300 Descending Washington Center
12:08AM 38.4489 -76.7714 32° Northeast 463 533 33,000 -420 Level Washington Center
12:09AM 38.5603 -76.6775 33° Northeast 468 539 32,200 -960 Descending Washington Center
12:10AM 38.6717 -76.5914 31° Northeast 468 539 31,200 -960 Descending Washington Center
12:11AM 38.7806 -76.4997 33° Northeast 468 539 30,300 -960 Descending Washington Center
12:12AM 38.8919 -76.4106 32° Northeast 468 539 29,300 -1,020 Descending Washington Center
12:13AM 39.0050 -76.3181 32° Northeast 468 539 28,300 -1,020 Descending Washington Center
12:14AM 39.1181 -76.2231 33° Northeast 468 539 27,300 -660 Descending Washington Center
12:15AM 39.2269 -76.1300 33° Northeast 468 539 27,000 -660 Descending Washington Center
12:16AM 39.3272 -76.0261 39° Northeast 468 539 26,000 -1,320 Descending Washington Center
12:17AM 39.4236 -75.9114 43° Northeast 463 533 24,400 -1,620 Descending Washington Center
12:18AM 39.5175 -75.8014 42° Northeast 463 533 22,800 -1,620 Descending Washington Center
12:19AM 39.6094 -75.6939 42° Northeast 450 518 21,200 -1,560 Descending Washington Center
12:20AM 39.6969 -75.5889 43° Northeast 444 511 19,700 -1,680 Descending Washington Center
12:21AM 39.7844 -75.4808 43° Northeast 438 504 17,900 -1,800 Descending Washington Center
12:22AM 39.8697 -75.3806 42° Northeast 420 483 16,200 -1,740 Descending Washington Center
12:23AM 39.9528 -75.2803 43° Northeast 410 472 14,500 -1,680 Descending Washington Center
12:24AM 40.0317 -75.1797 44° Northeast 394 453 12,900 -1,560 Descending Washington Center
12:25AM 40.1061 -75.0897 43° Northeast 383 441 11,400 -1,380 Descending Washington Center
12:26AM 40.2167 -74.9667 40° Northeast 311 358 9,500 -1,260 Descending New York TRACON
12:27AM 40.2667 -74.8833 52° Northeast 312 359 8,300 -900 Descending New York TRACON
12:28AM 40.3333 -74.8000 44° Northeast 310 357 7,700 -600 Descending New York TRACON
12:29AM 40.4000 -74.7000 49° Northeast 308 354 7,000 -660 Descending New York TRACON
12:30AM 40.4833 -74.6000 42° Northeast 303 349 6,200 -900 Descending New York TRACON
12:31AM 40.5500 -74.5500 30° Northeast 304 350 5,100 -600 Descending New York TRACON
12:32AM 40.6167 -74.4667 43° Northeast 307 353 5,000 -240 Descending New York TRACON
12:33AM 40.6833 -74.4000 37° Northeast 304 350 4,700 -1,020 Descending New York TRACON
12:34AM 40.7333 -74.3333 45° Northeast 306 352 3,100 -900 Descending New York TRACON
12:35AM 40.8167 -74.2667 31° Northeast 295 339 3,000 -120 Descending New York TRACON